Time;durP1;ratioP1;P1;durP2;ratioP2;P2;SDS_P1;SDS_P2;PMS_P1;PMS_P2;Temp;Humidity;BMP_temperature;BMP_pressure;BME280_temperature;BME280_humidity;BME280_pressure;Samples;Min_cycle;Max_cycle;Signal;HPM_P1;HPM_P2
2022/03/24 00:00:42;;;;;;;76.18;53.17;;;;;;;9.14;52.36;102678.41;4803909;29;120812;-87
2022/03/24 00:03:09;;;;;;;82.32;55.92;;;;;;;9.29;52.79;102703.84;4804462;29;119338;-87
2022/03/24 00:05:45;;;;;;;76.78;54.25;;;;;;;9.18;52.76;102688.16;4816062;29;119246;-87
2022/03/24 00:08:14;;;;;;;78.90;54.97;;;;;;;9.26;53.14;102697.19;4804473;29;119945;-87
2022/03/24 00:10:45;;;;;;;76.72;53.65;;;;;;;9.06;52.91;102677.63;4772031;29;119398;-87
2022/03/24 00:13:15;;;;;;;78.55;54.90;;;;;;;9.27;52.43;102714.41;4807081;29;119428;-86
2022/03/24 00:15:42;;;;;;;81.40;55.53;;;;;;;9.18;52.81;102698.34;4784657;29;122869;-87
2022/03/24 00:18:08;;;;;;;81.85;55.42;;;;;;;9.30;52.67;102711.66;4814845;29;120257;-87
2022/03/24 00:20:35;;;;;;;78.97;56.35;;;;;;;8.93;53.10;102658.06;4794516;29;119244;-86
2022/03/24 00:23:01;;;;;;;79.68;57.17;;;;;;;9.16;52.60;102701.47;4783217;29;119398;-87
2022/03/24 00:25:31;;;;;;;84.47;57.30;;;;;;;8.97;53.32;102671.75;4789300;29;119130;-87
2022/03/24 00:28:04;;;;;;;83.97;56.72;;;;;;;9.40;53.30;102745.69;4792769;29;121164;-87
2022/03/24 00:30:31;;;;;;;78.75;56.13;;;;;;;8.94;53.01;102667.03;4807436;29;119147;-86
2022/03/24 00:33:07;;;;;;;84.47;58.13;;;;;;;8.96;53.26;102672.13;4790699;29;119187;-87
2022/03/24 00:35:38;;;;;;;79.65;55.17;;;;;;;8.88;53.00;102668.63;4822485;29;120039;-86
2022/03/24 00:41:17;;;;;;;81.38;56.88;;;;;;;9.06;53.45;102691.31;4799414;29;121310;-86
2022/03/24 00:43:54;;;;;;;82.60;58.15;;;;;;;9.25;54.00;102731.22;4801378;29;119384;-87
2022/03/24 00:46:31;;;;;;;;;;;;;;;9.21;53.85;102720.25;4821928;23;120928;-87
2022/03/24 00:49:13;;;;;;;80.95;55.08;;;;;;;8.75;53.73;102653.72;4825053;29;121770;-86
2022/03/24 00:51:44;;;;;;;86.60;58.78;;;;;;;8.70;54.40;102646.69;4842923;29;120206;-87
2022/03/24 00:54:10;;;;;;;81.90;58.38;;;;;;;8.74;54.04;102647.47;4796788;29;122608;-86
2022/03/24 00:56:44;;;;;;;87.13;58.83;;;;;;;8.99;53.98;102691.31;4824834;29;121576;-86
2022/03/24 00:59:12;;;;;;;81.85;56.97;;;;;;;8.69;54.11;102649.81;4825957;29;119358;-86
2022/03/24 01:01:42;;;;;;;84.80;59.67;;;;;;;8.86;54.64;102665.50;4871172;23;119368;-86
2022/03/24 01:04:09;;;;;;;87.68;58.17;;;;;;;8.70;54.53;102645.91;4813496;29;121250;-86
2022/03/24 01:06:37;;;;;;;85.32;58.75;;;;;;;8.65;54.13;102636.16;4827907;29;119229;-87
2022/03/24 01:09:07;;;;;;;82.07;58.40;;;;;;;8.61;53.87;102633.41;4812138;29;122672;-87
2022/03/24 01:11:45;;;;;;;83.53;58.28;;;;;;;9.10;54.00;102710.47;4828520;29;119755;-87
2022/03/24 01:14:17;;;;;;;84.97;58.05;;;;;;;8.83;53.95;102669.00;4810376;29;119372;-86
2022/03/24 01:16:55;;;;;;;84.40;58.58;;;;;;;8.63;54.47;102635.75;4824863;29;119295;-87
2022/03/24 01:19:30;;;;;;;88.90;60.28;;;;;;;8.81;53.73;102668.63;4810127;29;119993;-87
2022/03/24 01:22:01;;;;;;;90.97;61.67;;;;;;;8.61;53.95;102627.94;4810946;29;118955;-87
2022/03/24 01:24:41;;;;;;;82.13;59.33;;;;;;;8.87;54.43;102669.78;4788173;29;121487;-87
2022/03/24 01:27:10;;;;;;;91.28;62.65;;;;;;;8.68;54.15;102632.63;4814165;29;119474;-87
2022/03/24 01:29:45;;;;;;;92.45;62.88;;;;;;;8.64;53.87;102623.63;4813758;29;120039;-87
2022/03/24 01:32:14;;;;;;;88.25;61.92;;;;;;;8.66;54.42;102623.25;4808120;29;119232;-87
2022/03/24 01:34:48;;;;;;;90.32;61.78;;;;;;;8.58;53.73;102623.25;4810255;29;120082;-86
2022/03/24 01:37:15;;;;;;;87.97;61.88;;;;;;;8.68;53.80;102629.09;4808908;29;122682;-87
2022/03/24 01:39:52;;;;;;;85.57;60.95;;;;;;;9.05;54.33;102678.00;4811393;29;118412;-86
2022/03/24 01:42:34;;;;;;;85.55;59.65;;;;;;;8.61;54.54;102611.53;4807020;29;118910;-87
2022/03/24 01:45:09;;;;;;;86.80;60.70;;;;;;;8.60;54.61;102606.44;4809655;29;122289;-87
2022/03/24 01:47:40;;;;;;;88.70;59.55;;;;;;;8.77;55.05;102632.25;4810302;29;118895;-87
2022/03/24 01:50:13;;;;;;;84.90;59.40;;;;;;;8.58;54.10;102603.31;4809392;29;119923;-87
2022/03/24 01:52:43;;;;;;;92.22;61.90;;;;;;;8.59;54.63;102611.13;4810082;29;119294;-87
2022/03/24 01:55:11;;;;;;;84.43;60.67;;;;;;;8.78;54.55;102636.56;4779790;29;122427;-88
2022/03/24 01:57:42;;;;;;;86.25;59.03;;;;;;;8.59;54.57;102602.94;4841662;29;119974;-87
2022/03/24 02:00:13;;;;;;;87.90;60.45;;;;;;;8.54;54.56;102599.81;4807709;29;119174;-87
2022/03/24 02:02:48;;;;;;;92.72;61.28;;;;;;;8.53;54.56;102599.03;4837024;29;119796;-87
2022/03/24 02:05:26;;;;;;;87.40;59.72;;;;;;;8.98;54.77;102667.03;4794248;29;121808;-88
2022/03/24 02:07:53;;;;;;;87.00;60.60;;;;;;;8.78;54.79;102637.34;4809712;29;119115;-88
2022/03/24 02:10:23;;;;;;;95.57;62.33;;;;;;;8.51;54.56;102598.59;4822928;29;119429;-87
2022/03/24 02:12:54;;;;;;;86.22;59.92;;;;;;;8.53;54.99;102600.97;4810168;29;121955;-87
2022/03/24 02:15:37;;;;;;;89.32;60.28;;;;;;;8.57;54.24;102605.28;4809951;29;122062;-87
2022/03/24 02:18:17;;;;;;;88.85;59.63;;;;;;;8.40;54.14;102586.88;4804919;29;123130;-88
2022/03/24 02:20:51;;;;;;;84.95;59.20;;;;;;;8.39;54.55;102588.06;4795785;29;119706;-88
2022/03/24 02:23:26;;;;;;;89.22;61.50;;;;;;;8.43;54.33;102591.56;4794625;29;121015;-87
2022/03/24 02:25:59;;;;;;;85.93;59.60;;;;;;;8.36;54.24;102579.84;4794806;29;121196;-87
2022/03/24 02:28:33;;;;;;;91.80;61.70;;;;;;;8.55;54.83;102607.63;4798092;29;118962;-87
2022/03/24 02:31:04;;;;;;;93.05;62.38;;;;;;;8.32;54.85;102577.88;4807290;29;121037;-87
2022/03/24 02:33:37;;;;;;;89.97;62.38;;;;;;;8.28;54.50;102573.53;4822801;29;121813;-88
2022/03/24 02:36:13;;;;;;;89.95;60.42;;;;;;;8.35;54.99;102581.03;4815328;29;119241;-87
2022/03/24 02:38:41;;;;;;;88.15;61.33;;;;;;;8.41;55.00;102590.41;4818245;29;119215;-87
2022/03/24 02:41:13;;;;;;;93.32;61.60;;;;;;;8.31;55.13;102573.56;4824177;29;119136;-87
2022/03/24 02:43:56;;;;;;;89.10;61.00;;;;;;;8.32;54.43;102582.56;4837064;29;120830;-87
2022/03/24 02:46:22;;;;;;;90.28;60.50;;;;;;;8.59;55.13;102626.75;4840425;29;120161;-87
2022/03/24 02:49:02;;;;;;;89.05;60.33;;;;;;;8.38;55.27;102596.66;4794453;29;119546;-88
2022/03/24 02:51:38;;;;;;;91.90;61.85;;;;;;;8.49;55.56;102603.69;4794633;29;119698;-87
2022/03/24 02:54:06;;;;;;;96.47;61.47;;;;;;;8.55;55.26;102613.09;4823846;29;119965;-87
2022/03/24 02:56:34;;;;;;;98.20;63.88;;;;;;;8.30;55.24;102573.97;4796559;29;119509;-87
2022/03/24 02:59:06;;;;;;;87.35;59.92;;;;;;;8.49;54.63;102614.63;4824746;29;119221;-87
2022/03/24 03:01:38;;;;;;;91.75;61.53;;;;;;;8.24;54.18;102573.53;4794320;29;119326;-87
2022/03/24 03:04:17;;;;;;;87.00;59.25;;;;;;;8.28;54.36;102573.53;4808225;29;119465;-87
2022/03/24 03:06:52;;;;;;;90.80;60.85;;;;;;;8.19;54.56;102567.66;4818715;29;120476;-88
2022/03/24 03:09:21;;;;;;;88.03;61.65;;;;;;;8.34;54.22;102601.34;4796273;29;119226;-87
2022/03/24 03:13:09;;;;;;;89.40;59.35;;;;;;;8.33;54.85;102600.53;4896969;27;5865713;-86
2022/03/24 03:15:38;;;;;;;89.45;59.95;;;;;;;8.31;53.67;102608.34;5054205;27;119083;-86
2022/03/24 03:18:08;;;;;;;86.45;59.05;;;;;;;8.19;54.17;102584.06;5056655;27;119079;-86
2022/03/24 03:20:47;;;;;;;90.95;61.25;;;;;;;8.19;54.49;102579.38;5079029;22;121766;-87
2022/03/24 03:23:14;;;;;;;88.30;59.35;;;;;;;8.17;54.92;102589.16;4988713;28;121567;-86
2022/03/24 03:25:50;;;;;;;93.22;60.88;;;;;;;8.23;54.67;102591.09;4995038;28;120987;-87
2022/03/24 03:28:30;;;;;;;87.80;59.72;;;;;;;8.20;54.72;102591.09;5008997;28;121101;-87
2022/03/24 03:31:00;;;;;;;90.30;60.67;;;;;;;8.30;54.66;102598.56;4995018;28;119140;-88
2022/03/24 03:33:31;;;;;;;89.85;61.67;;;;;;;8.25;55.15;102599.69;5017134;28;121487;-87
2022/03/24 03:35:58;;;;;;;94.70;62.85;;;;;;;8.27;55.11;102596.59;5009857;28;119363;-87
2022/03/24 03:38:38;;;;;;;;;;;;;;;;;;;;;
2022/03/24 03:41:11;;;;;;;88.25;59.05;;;;;;;8.06;54.61;102580.94;5013002;28;121083;-87
2022/03/24 03:43:44;;;;;;;93.47;61.22;;;;;;;8.30;54.67;102620.44;4994138;28;119555;-88
2022/03/24 03:46:16;;;;;;;93.65;60.15;;;;;;;8.20;54.31;102610.25;5021722;28;120448;-87
2022/03/24 03:48:47;;;;;;;100.57;63.50;;;;;;;7.89;54.90;102568.78;5012479;28;122147;-87
2022/03/24 03:51:16;;;;;;;94.70;63.85;;;;;;;8.16;54.68;102607.50;5013291;28;119352;-87
2022/03/24 03:53:50;;;;;;;106.75;67.75;;;;;;;7.89;54.77;102568.78;5030104;28;119348;-88
2022/03/24 03:56:22;;;;;;;97.30;63.92;;;;;;;7.94;55.15;102579.31;5033477;28;119411;-87
2022/03/24 03:58:51;;;;;;;92.43;61.88;;;;;;;7.91;54.62;102574.63;5013731;28;119610;-88
2022/03/24 04:01:20;;;;;;;88.13;59.58;;;;;;;8.10;54.47;102603.59;5029323;28;122017;-88
2022/03/24 04:03:51;;;;;;;91.78;60.08;;;;;;;8.13;54.69;102602.03;5028329;28;119322;-87
2022/03/24 04:06:43;;;;;;;89.75;59.50;;;;;;;7.98;54.45;102584.78;5002093;28;120369;-88
2022/03/24 04:09:10;;;;;;;96.47;62.08;;;;;;;8.22;54.89;102614.16;5029905;28;121023;-87
2022/03/24 04:11:46;;;;;;;95.60;63.63;;;;;;;7.97;55.06;102578.53;4992807;28;119621;-87
2022/03/24 04:14:21;;;;;;;99.07;62.15;;;;;;;7.99;55.16;102586.34;5010315;28;120183;-87
2022/03/24 04:16:58;;;;;;;99.68;65.53;;;;;;;8.04;54.91;102579.72;5029350;28;121021;-87
2022/03/24 04:19:30;;;;;;;93.68;63.22;;;;;;;8.12;55.22;102595.00;5017621;28;118590;-87
2022/03/24 04:21:59;;;;;;;96.45;62.10;;;;;;;8.13;55.60;102580.16;5012350;28;120580;-87
2022/03/24 04:24:29;;;;;;;99.75;64.38;;;;;;;8.14;55.92;102576.25;4984210;28;119359;-87
2022/03/24 04:27:00;;;;;;;94.88;63.95;;;;;;;8.33;55.64;102600.53;5017055;27;119254;-87
2022/03/24 04:29:31;;;;;;;101.05;66.28;;;;;;;8.34;55.85;102602.13;5012720;28;119292;-88
2022/03/24 04:36:17;;;;;;;104.03;66.13;;;;;;;8.40;55.88;102600.56;5013545;28;119613;-88
2022/03/24 04:38:50;;;;;;;100.63;66.20;;;;;;;8.26;56.12;102582.13;5000463;28;120005;-88
2022/03/24 04:41:32;;;;;;;97.60;66.43;;;;;;;8.39;55.82;102604.47;4997076;28;118522;-88
2022/03/24 04:44:11;;;;;;;101.78;65.70;;;;;;;8.22;56.05;102573.13;4987732;28;120917;-87
2022/03/24 04:46:40;;;;;;;90.43;61.97;;;;;;;8.68;55.73;102642.78;5017416;28;119202;-88
2022/03/24 04:49:15;;;;;;;91.88;62.50;;;;;;;8.18;55.30;102564.16;4970390;28;119075;-87
2022/03/24 04:51:45;;;;;;;91.75;63.13;;;;;;;8.34;56.01;102595.88;5015755;28;120341;-88
2022/03/24 04:54:18;;;;;;;95.43;62.40;;;;;;;8.14;55.45;102560.63;4980275;28;119218;-88
2022/03/24 04:56:53;;;;;;;99.32;64.53;;;;;;;8.36;56.00;102597.03;5009947;28;120708;-87
2022/03/24 04:59:22;;;;;;;88.35;59.47;;;;;;;8.22;55.34;102578.59;4999950;28;122113;-88
2022/03/24 05:01:53;;;;;;;99.72;64.75;;;;;;;8.38;55.43;102604.84;4980971;28;119135;-87
2022/03/24 05:04:23;;;;;;;91.47;60.28;;;;;;;8.01;55.34;102560.22;4998520;28;119131;-88
2022/03/24 05:06:58;;;;;;;91.85;62.60;;;;;;;8.26;54.46;102597.75;4982764;28;122563;-88
2022/03/24 05:09:53;;;;;;;;;;;;;;;;;;;;;
2022/03/24 05:12:28;;;;;;;98.85;62.45;;;;;;;7.94;55.43;102567.63;5005169;28;121029;-88
2022/03/24 05:15:00;;;;;;;99.30;65.30;;;;;;;7.98;55.03;102584.78;4976452;28;120280;-87
2022/03/24 05:17:35;;;;;;;96.47;64.35;;;;;;;7.80;55.41;102556.63;4981294;28;118897;-88
2022/03/24 05:20:16;;;;;;;95.65;62.90;;;;;;;7.83;55.58;102566.81;5023602;28;119329;-87
2022/03/24 05:22:47;;;;;;;94.57;63.55;;;;;;;7.84;55.10;102571.09;5013645;28;119392;-87
2022/03/24 05:25:20;;;;;;;98.32;64.18;;;;;;;7.80;55.69;102557.41;5014898;28;119371;-87
2022/03/24 05:28:04;;;;;;;101.78;64.53;;;;;;;7.99;55.28;102587.16;5015680;28;119751;-88
2022/03/24 05:30:34;;;;;;;105.35;63.60;;;;;;;7.83;55.64;102573.06;5003312;27;118927;-87
2022/03/24 05:33:07;;;;;;;98.38;60.63;;;;;;;7.80;55.88;102565.59;5010885;28;119363;-88
2022/03/24 05:35:44;;;;;;;99.10;63.67;;;;;;;7.83;55.04;102570.31;4993829;28;119253;-87
2022/03/24 05:38:28;;;;;;;92.95;62.38;;;;;;;7.83;55.55;102570.31;5002263;28;118545;-88
2022/03/24 05:41:23;;;;;;;;;;;;;;;;;;;;;
2022/03/24 05:44:06;;;;;;;103.03;61.00;;;;;;;7.89;55.58;102587.91;5015014;28;119414;-88
2022/03/24 05:46:47;;;;;;;107.50;60.67;;;;;;;7.98;55.30;102604.72;4965267;28;120174;-88
2022/03/24 05:49:26;;;;;;;99.78;63.97;;;;;;;7.98;55.98;102591.03;4999392;28;119187;-88
2022/03/24 05:52:28;;;;;;;101.18;65.53;;;;;;;7.93;55.26;102582.44;5001691;28;119760;-87
2022/03/24 05:55:03;;;;;;;101.97;64.15;;;;;;;8.10;56.38;102589.13;5012133;28;120815;-88
2022/03/24 05:57:36;;;;;;;97.55;64.28;;;;;;;8.39;55.69;102636.50;4980916;28;119242;-88
2022/03/24 06:00:19;;;;;;;102.78;65.88;;;;;;;7.96;55.77;102565.28;4999972;28;119320;-88
2022/03/24 06:03:01;;;;;;;102.72;64.72;;;;;;;8.35;56.27;102624.78;4980299;28;121359;-88
2022/03/24 06:05:40;;;;;;;97.30;63.92;;;;;;;8.29;55.98;102602.47;4980068;28;118943;-88
2022/03/24 06:08:27;;;;;;;95.00;62.22;;;;;;;8.45;55.48;102622.03;4985075;28;119294;-88
2022/03/24 06:11:03;;;;;;;96.32;63.33;;;;;;;8.63;55.33;102648.66;4998979;28;121412;-88
2022/03/24 06:13:40;;;;;;;97.63;62.88;;;;;;;8.27;56.24;102593.84;4998135;28;118526;-88
2022/03/24 06:20:27;;;;;;;102.60;64.40;;;;;;;8.78;55.84;102655.72;5007945;28;119404;-88
2022/03/24 06:29:24;;;;;;;106.78;66.65;;;;;;;8.71;56.33;102609.19;5150111;22;119583;-88
2022/03/24 06:32:39;;;;;;;106.72;66.75;;;;;;;8.80;56.91;102610.38;4989759;27;118768;-87
2022/03/24 06:35:31;;;;;;;101.53;66.93;;;;;;;9.17;56.80;102647.50;5096590;22;119924;31
2022/03/24 06:49:41;;;;;;;102.82;66.45;;;;;;;9.17;55.65;102581.78;5245674;22;121292;-86
2022/03/24 06:52:53;;;;;;;;;;;;;;;;;;;;;
2022/03/24 06:55:26;;;;;;;105.70;69.13;;;;;;;9.75;56.13;102643.47;5013989;22;119119;-87
2022/03/24 06:58:13;;;;;;;109.07;70.15;;;;;;;9.70;56.23;102620.00;5162971;22;121234;-86
2022/03/24 07:01:06;;;;;;;106.83;68.77;;;;;;;9.75;56.25;102616.84;4960650;28;118438;-88
2022/03/24 07:03:41;;;;;;;100.90;66.75;;;;;;;9.68;55.26;102586.69;5212060;22;120680;-87
2022/03/24 07:09:32;;;;;;;114.40;66.70;;;;;;;9.92;55.55;102597.97;4940154;28;120408;-87
2022/03/24 07:12:00;;;;;;;115.78;68.90;;;;;;;10.04;55.32;102605.75;4944762;28;120056;-87
2022/03/24 07:14:30;;;;;;;109.25;67.18;;;;;;;10.04;55.95;102583.81;4930137;28;118548;-86
2022/03/24 07:17:17;;;;;;;110.95;69.70;;;;;;;10.35;55.77;102621.25;4920789;28;118537;-88
2022/03/24 07:19:49;;;;;;;102.28;65.70;;;;;;;10.68;56.02;102650.06;4952704;28;120189;-87
2022/03/24 07:22:22;;;;;;;103.05;66.22;;;;;;;10.33;54.88;102595.41;4928579;28;118415;-88
2022/03/24 07:24:50;;;;;;;101.07;67.15;;;;;;;10.84;55.30;102657.78;4929900;28;119309;-87
2022/03/24 07:27:16;;;;;;;110.65;68.32;;;;;;;10.89;54.90;102651.88;4941306;28;119887;-88
2022/03/24 07:29:52;;;;;;;100.15;66.80;;;;;;;10.95;55.34;102646.72;4899838;28;119411;-88
2022/03/24 07:32:18;;;;;;;98.70;65.57;;;;;;;11.07;55.43;102652.50;4917129;28;122153;-88
2022/03/24 07:34:47;;;;;;;99.65;64.93;;;;;;;11.06;55.24;102641.91;4929753;28;120295;-89
2022/03/24 07:37:13;;;;;;;102.35;65.57;;;;;;;11.31;55.40;102663.66;4910829;28;122279;-90
2022/03/24 07:39:39;;;;;;;97.65;63.83;;;;;;;11.21;54.63;102637.84;4907797;28;124106;-88
2022/03/24 07:42:06;;;;;;;103.82;66.22;;;;;;;11.22;54.61;102614.69;4923273;28;119814;-88
2022/03/24 07:44:36;;;;;;;97.03;63.17;;;;;;;11.44;53.58;102633.72;4913168;28;119730;-88
2022/03/24 07:47:02;;;;;;;100.28;63.70;;;;;;;11.50;53.40;102630.09;4923154;28;122930;-88
2022/03/24 07:49:30;;;;;;;101.22;63.25;;;;;;;11.56;53.80;102624.94;4930277;28;119377;-89
2022/03/24 07:51:58;;;;;;;95.03;61.30;;;;;;;11.78;53.09;102647.47;4900701;28;121724;-90
2022/03/24 07:54:41;;;;;;;97.15;64.97;;;;;;;11.95;52.87;102652.78;4898158;28;119615;-89
2022/03/24 07:57:07;;;;;;;93.38;63.80;;;;;;;12.06;53.11;102647.13;4908048;28;120222;-90
2022/03/24 07:59:34;;;;;;;95.35;62.25;;;;;;;12.08;52.72;102653.03;4931335;28;122738;-89
2022/03/24 08:02:01;;;;;;;98.35;63.60;;;;;;;12.23;52.55;102656.34;4906600;28;119410;-88
2022/03/24 08:04:27;;;;;;;112.00;65.18;;;;;;;12.21;52.78;102625.72;4914581;28;119998;-90
2022/03/24 08:06:53;;;;;;;108.75;65.40;;;;;;;12.44;51.57;102650.56;4912721;28;120282;-88
2022/03/24 08:09:19;;;;;;;96.13;62.22;;;;;;;12.54;51.97;102654.38;4947308;28;120190;-88
2022/03/24 08:11:45;;;;;;;98.07;61.67;;;;;;;12.51;51.26;102631.16;4929707;28;119778;-88
2022/03/24 08:14:11;;;;;;;100.03;64.25;;;;;;;12.65;51.82;102643.19;4932643;28;124232;-89
2022/03/24 08:16:37;;;;;;;97.68;62.15;;;;;;;12.83;51.58;102649.19;4913346;28;122051;-89
2022/03/24 08:19:03;;;;;;;97.32;63.22;;;;;;;12.94;51.02;102649.78;4928765;28;120084;-89
2022/03/24 08:21:29;;;;;;;98.32;62.80;;;;;;;13.00;51.13;102636.28;4912109;28;119736;-89
2022/03/24 08:23:54;;;;;;;94.43;61.08;;;;;;;13.19;51.17;102654.91;4915402;28;122007;-88
2022/03/24 08:26:22;;;;;;;101.90;61.55;;;;;;;13.33;50.97;102660.16;4913281;28;123290;-88
2022/03/24 08:28:48;;;;;;;92.70;61.25;;;;;;;13.36;50.37;102659.31;4914549;28;119747;-88
2022/03/24 08:31:16;;;;;;;95.97;62.92;;;;;;;13.23;50.62;102616.25;4930883;28;119692;-89
2022/03/24 08:33:49;;;;;;;95.40;63.33;;;;;;;13.64;49.67;102668.25;4942636;28;120870;-88
2022/03/24 08:36:17;;;;;;;99.43;62.90;;;;;;;13.75;49.26;102663.31;4913707;28;122212;-88
2022/03/24 08:38:42;;;;;;;95.72;62.08;;;;;;;13.72;49.68;102647.59;4910898;28;122850;-89
2022/03/24 08:41:10;;;;;;;97.25;62.83;;;;;;;13.94;49.45;102670.78;4895842;28;119620;-87
2022/03/24 08:43:36;;;;;;;92.40;61.30;;;;;;;14.05;48.89;102676.09;4925589;28;121966;-89
2022/03/24 08:46:06;;;;;;;91.32;62.17;;;;;;;13.86;48.85;102625.25;4911315;28;122894;-91
2022/03/24 08:48:32;;;;;;;92.18;60.25;;;;;;;14.24;48.99;102672.56;4893001;28;119947;-91
2022/03/24 08:50:58;;;;;;;94.53;59.67;;;;;;;14.32;48.33;102673.16;4913277;28;122074;-88
2022/03/24 08:53:23;;;;;;;97.28;62.40;;;;;;;14.39;48.80;102673.78;4925990;28;122303;-88
2022/03/24 08:55:49;;;;;;;87.07;58.00;;;;;;;14.23;48.15;102642.63;4912114;28;119512;-88
2022/03/24 08:58:18;;;;;;;90.60;59.38;;;;;;;14.52;48.33;102665.63;4910186;28;123117;-87
2022/03/24 09:00:47;;;;;;;92.90;60.50;;;;;;;14.70;48.84;102670.75;4897243;28;119537;-87
2022/03/24 09:03:13;;;;;;;87.63;58.72;;;;;;;14.81;48.22;102679.56;4901804;28;122117;-87
2022/03/24 09:05:39;;;;;;;89.88;58.85;;;;;;;14.83;46.69;102673.59;4906790;28;123083;-87
2022/03/24 09:08:05;;;;;;;93.85;58.85;;;;;;;14.91;47.38;102680.53;4912390;28;119921;-88
2022/03/24 09:10:30;;;;;;;86.18;58.25;;;;;;;14.94;47.74;102669.38;4918048;28;121894;-88
2022/03/24 09:12:57;;;;;;;89.22;59.28;;;;;;;15.02;47.75;102665.22;4930054;28;123154;-89
2022/03/24 09:15:23;;;;;;;94.82;59.92;;;;;;;15.12;46.35;102673.66;4919729;28;120110;-87
2022/03/24 09:17:48;;;;;;;92.55;59.42;;;;;;;15.04;46.77;102659.25;4897062;28;122298;-87
2022/03/24 09:20:18;;;;;;;91.22;58.25;;;;;;;15.24;46.45;102670.97;4919428;28;123065;-88
2022/03/24 09:22:46;;;;;;;91.63;60.33;;;;;;;15.31;46.59;102679.09;4891874;28;122631;-89
2022/03/24 09:25:13;;;;;;;89.32;59.17;;;;;;;15.35;46.66;102671.47;4913789;28;123923;-88
2022/03/24 09:27:39;;;;;;;86.25;58.80;;;;;;;15.35;47.61;102665.94;4917025;28;119923;-88
2022/03/24 09:30:07;;;;;;;95.82;59.65;;;;;;;15.45;46.47;102675.19;4913084;28;122231;-88
2022/03/24 09:32:33;;;;;;;88.00;55.75;;;;;;;15.54;46.91;102685.59;4913860;28;123598;-88
2022/03/24 09:34:59;;;;;;;89.35;57.80;;;;;;;15.63;46.83;102675.50;4902981;28;120148;-88
2022/03/24 09:37:24;;;;;;;86.43;58.33;;;;;;;15.65;45.98;102666.78;4914888;28;122696;-88
2022/03/24 09:39:50;;;;;;;85.82;56.47;;;;;;;15.79;46.26;102691.25;4882408;28;123670;-86
2022/03/24 09:42:17;;;;;;;91.07;55.75;;;;;;;15.78;46.04;102675.88;4925418;28;119676;-88
2022/03/24 09:44:45;;;;;;;84.20;56.63;;;;;;;15.89;46.04;102687.44;4901256;28;123661;-87
2022/03/24 09:47:14;;;;;;;84.63;56.05;;;;;;;15.87;45.11;102683.56;4926103;28;119816;-86
2022/03/24 09:49:41;;;;;;;86.95;56.47;;;;;;;15.99;45.67;102693.09;4897085;28;122379;-87
2022/03/24 09:52:10;;;;;;;85.95;57.30;;;;;;;16.01;46.20;102694.19;4931099;28;120467;-87
2022/03/24 09:54:38;;;;;;;89.55;57.92;;;;;;;16.01;45.33;102688.66;4898362;28;119914;-86
2022/03/24 09:57:08;;;;;;;86.65;58.03;;;;;;;16.10;44.68;102685.28;4922242;28;119663;-87
2022/03/24 09:59:34;;;;;;;89.82;57.85;;;;;;;16.17;45.26;102685.81;4897464;28;122522;-88
2022/03/24 10:02:04;;;;;;;87.32;57.05;;;;;;;16.21;45.17;102689.25;4935929;28;119877;-87
2022/03/24 10:04:48;;;;;;;87.25;56.95;;;;;;;16.20;45.29;102668.31;4917104;28;122289;-87
2022/03/24 10:07:15;;;;;;;90.78;57.45;;;;;;;16.41;45.58;102689.06;4926530;28;119527;-86
2022/03/24 10:09:45;;;;;;;81.07;56.67;;;;;;;16.48;45.63;102683.31;4914946;28;122604;-86
2022/03/24 10:12:25;;;;;;;85.05;57.67;;;;;;;16.54;44.66;102687.06;4924884;28;120545;-87
2022/03/24 10:14:59;;;;;;;88.30;56.85;;;;;;;16.56;44.42;102689.38;4945753;28;119825;-87
2022/03/24 10:17:25;;;;;;;87.85;58.13;;;;;;;16.54;45.42;102673.19;4927260;28;119955;-87
2022/03/24 10:20:01;;;;;;;89.75;57.78;;;;;;;16.60;45.20;102675.44;4916074;28;120531;-87
2022/03/24 10:22:27;;;;;;;87.70;57.88;;;;;;;16.58;44.89;102678.66;4893544;28;119960;-86
2022/03/24 10:24:53;;;;;;;85.38;57.10;;;;;;;16.50;45.03;102669.00;4915831;28;122482;-87
2022/03/24 10:27:27;;;;;;;83.22;56.85;;;;;;;16.58;45.45;102671.13;4943744;28;119488;-87
2022/03/24 10:29:55;;;;;;;86.57;57.13;;;;;;;16.61;45.30;102671.44;4925666;28;122442;-86
2022/03/24 10:32:26;;;;;;;81.82;56.03;;;;;;;16.60;45.14;102662.38;4898247;28;123125;-87
2022/03/24 10:34:56;;;;;;;81.70;54.78;;;;;;;16.75;45.29;102676.56;4929367;28;119543;-86
2022/03/24 10:37:25;;;;;;;76.32;52.58;;;;;;;16.83;45.70;102675.13;4920229;28;122132;-86
2022/03/24 10:40:11;;;;;;;81.90;55.47;;;;;;;16.83;44.78;102678.66;4907116;28;123446;-87
2022/03/24 10:42:40;;;;;;;85.53;56.90;;;;;;;16.79;44.85;102661.34;4927754;28;120343;-87
2022/03/24 10:45:20;;;;;;;85.05;55.67;;;;;;;16.97;44.37;102674.63;4896595;28;122673;-88
2022/03/24 10:47:54;;;;;;;80.60;55.10;;;;;;;17.00;44.50;102670.97;4918829;28;123553;-87
2022/03/24 10:50:32;;;;;;;86.55;57.85;;;;;;;17.06;44.46;102671.97;4913042;28;123024;-86
2022/03/24 10:53:16;;;;;;;82.55;55.03;;;;;;;17.10;44.07;102666.31;4941811;28;123373;-88
2022/03/24 10:55:44;;;;;;;79.32;56.17;;;;;;;17.11;44.28;102673.41;4912872;28;120160;-87
2022/03/24 10:58:32;;;;;;;81.88;54.97;;;;;;;17.14;43.42;102669.72;4926058;28;119742;-85
2022/03/24 11:01:03;;;;;;;89.15;55.75;;;;;;;17.16;43.38;102665.28;4908817;28;123243;-87
2022/03/24 11:03:29;;;;;;;76.18;51.78;;;;;;;17.03;43.92;102645.13;4929336;28;119932;-87
2022/03/24 11:06:24;;;;;;;85.18;52.92;;;;;;;17.18;43.55;102665.59;4929264;28;122257;-87
2022/03/24 11:08:59;;;;;;;79.90;53.50;;;;;;;17.16;43.96;102658.94;4919804;28;123281;-86
2022/03/24 11:11:25;;;;;;;81.90;53.00;;;;;;;17.21;43.25;102663.94;4911805;28;120312;-87
2022/03/24 11:14:02;;;;;;;87.32;52.05;;;;;;;17.23;43.12;102664.25;4923070;28;123661;-86
2022/03/24 11:16:32;;;;;;;77.05;50.63;;;;;;;17.26;42.59;102657.03;4925373;28;121140;-86
2022/03/24 11:18:59;;;;;;;75.13;48.28;;;;;;;17.29;42.76;102661.69;4930200;28;119576;-87
2022/03/24 11:21:51;;;;;;;72.43;45.75;;;;;;;17.34;42.47;102661.13;4926690;28;120101;-86
2022/03/24 11:24:17;;;;;;;69.43;44.13;;;;;;;17.28;41.84;102649.84;4896556;28;120010;-87
2022/03/24 11:26:43;;;;;;;65.55;43.88;;;;;;;17.27;41.96;102641.94;4930013;28;122552;-87
2022/03/24 11:29:10;;;;;;;74.22;49.20;;;;;;;17.24;42.60;102638.06;4928601;28;123528;-87
2022/03/24 11:31:36;;;;;;;74.22;48.10;;;;;;;17.31;42.20;102643.38;4929169;28;119500;-87
2022/03/24 11:34:04;;;;;;;67.45;46.63;;;;;;;17.32;42.91;102638.59;4917675;28;122223;-86
2022/03/24 11:36:31;;;;;;;80.18;49.70;;;;;;;17.33;41.04;102652.03;4929060;28;120571;-86
2022/03/24 11:38:59;;;;;;;74.40;47.65;;;;;;;17.38;42.42;102647.91;4933643;28;119559;-87
2022/03/24 11:41:37;;;;;;;70.65;47.70;;;;;;;17.36;42.71;102639.25;4888129;28;122795;-87
2022/03/24 11:44:08;;;;;;;65.65;43.25;;;;;;;17.47;41.93;102651.50;4925496;28;119517;-86
2022/03/24 11:46:59;;;;;;;62.63;39.45;;;;;;;17.50;41.84;102644.28;4949937;28;119619;-86
2022/03/24 11:49:27;;;;;;;49.17;36.30;;;;;;;17.44;43.50;102635.00;4913568;28;122733;-86
2022/03/24 11:51:58;;;;;;;66.43;43.03;;;;;;;17.53;42.46;102643.41;4919066;28;119887;-86
2022/03/24 11:54:24;;;;;;;63.28;43.60;;;;;;;17.56;43.04;102645.25;4914395;28;122484;-87
2022/03/24 11:56:49;;;;;;;64.10;42.40;;;;;;;17.51;41.98;102623.66;4920518;28;124068;-87
2022/03/24 11:59:19;;;;;;;60.83;42.60;;;;;;;17.62;42.59;102640.69;4932833;28;122542;-87
2022/03/24 12:01:45;;;;;;;66.20;45.05;;;;;;;17.53;41.61;102615.66;4884688;28;123252;-86
2022/03/24 12:04:14;;;;;;;59.05;41.50;;;;;;;17.56;41.89;102614.75;4931041;28;119584;-86
2022/03/24 12:06:46;;;;;;;64.07;44.15;;;;;;;17.72;42.40;102633.22;4916795;28;122408;-85